Time;durP1;ratioP1;P1;durP2;ratioP2;P2;SDS_P1;SDS_P2;PMS_P1;PMS_P2;Temp;Humidity;BMP_temperature;BMP_pressure;BME280_temperature;BME280_humidity;BME280_pressure;Samples;Min_cycle;Max_cycle;Signal;HPM_P1;HPM_P2
2021/09/09 00:00:14;;;;;;;14.02;8.68;;;17.80;86.60;;;;;;5008424;28;20041;-55
2021/09/09 00:02:40;;;;;;;12.02;8.18;;;17.80;86.80;;;;;;5012366;28;20421;-59
2021/09/09 00:05:07;;;;;;;12.38;8.43;;;17.80;87.00;;;;;;4997193;28;20033;-55
2021/09/09 00:07:33;;;;;;;12.70;8.60;;;17.70;87.20;;;;;;4993905;28;20026;-58
2021/09/09 00:09:59;;;;;;;12.65;8.50;;;17.70;87.80;;;;;;4974949;28;20038;-58
2021/09/09 00:12:25;;;;;;;13.70;8.73;;;17.60;87.60;;;;;;4994593;28;20068;-56
2021/09/09 00:14:51;;;;;;;12.70;8.18;;;17.60;88.00;;;;;;4988104;28;20553;-58
2021/09/09 00:17:16;;;;;;;11.75;8.70;;;17.50;87.70;;;;;;4981989;28;20461;-58
2021/09/09 00:19:42;;;;;;;13.23;9.40;;;17.50;88.10;;;;;;5009514;28;20030;-58
2021/09/09 00:22:08;;;;;;;11.32;8.48;;;17.50;88.10;;;;;;5009502;28;20310;-58
2021/09/09 00:24:34;;;;;;;13.13;8.27;;;17.50;88.40;;;;;;5007085;28;20088;-55
2021/09/09 00:27:01;;;;;;;12.73;8.80;;;17.50;89.10;;;;;;4981193;28;20039;-57
2021/09/09 00:29:26;;;;;;;11.73;8.93;;;17.40;89.30;;;;;;5013938;28;20653;-56
2021/09/09 00:31:52;;;;;;;12.50;8.80;;;17.30;89.50;;;;;;5007221;28;20072;-58
2021/09/09 00:34:17;;;;;;;13.35;8.77;;;17.20;90.00;;;;;;5005573;28;20042;-58
2021/09/09 00:36:43;;;;;;;13.98;8.95;;;17.20;90.10;;;;;;4985621;28;20038;-58
2021/09/09 00:39:09;;;;;;;13.43;8.73;;;17.20;90.20;;;;;;4965592;28;20723;-58
2021/09/09 00:41:35;;;;;;;14.18;9.45;;;17.10;90.30;;;;;;5009796;28;20061;-58
2021/09/09 00:44:01;;;;;;;13.20;8.85;;;17.10;90.40;;;;;;4966281;28;20300;-58
2021/09/09 00:46:27;;;;;;;12.07;8.82;;;17.10;90.30;;;;;;5005312;28;20402;-58
2021/09/09 00:48:52;;;;;;;13.95;9.30;;;17.10;90.30;;;;;;4960299;28;20350;-58
2021/09/09 00:51:19;;;;;;;14.57;8.93;;;17.00;90.40;;;;;;4978361;28;20042;-58
2021/09/09 00:53:45;;;;;;;14.35;8.80;;;17.00;90.40;;;;;;4992430;28;20053;-58
2021/09/09 00:56:12;;;;;;;12.05;8.73;;;17.00;90.40;;;;;;4997379;28;20410;-56
2021/09/09 00:58:41;;;;;;;13.77;8.95;;;17.00;90.50;;;;;;5009587;28;20041;-57
2021/09/09 01:01:07;;;;;;;15.02;9.70;;;17.00;90.40;;;;;;4981566;28;20052;-55
2021/09/09 01:03:32;;;;;;;15.52;9.63;;;17.00;90.60;;;;;;5013220;28;20034;-56
2021/09/09 01:05:58;;;;;;;16.70;9.68;;;16.90;90.60;;;;;;4993210;28;20401;-57
2021/09/09 01:08:24;;;;;;;14.10;9.40;;;16.90;90.80;;;;;;4975099;28;20045;-58
2021/09/09 01:10:49;;;;;;;13.32;9.98;;;16.80;90.90;;;;;;4999315;28;20038;-57
2021/09/09 01:13:15;;;;;;;13.95;10.05;;;16.90;90.80;;;;;;5011166;28;20042;-56
2021/09/09 01:15:42;;;;;;;14.50;10.20;;;16.80;91.00;;;;;;5008602;28;20064;-57
2021/09/09 01:18:14;;;;;;;17.38;10.20;;;16.80;91.00;;;;;;5010784;28;20049;-58
2021/09/09 01:20:41;;;;;;;16.42;10.70;;;16.70;91.00;;;;;;5005677;28;20042;-58
2021/09/09 01:23:08;;;;;;;13.15;10.23;;;16.70;91.10;;;;;;4985921;28;20045;-54
2021/09/09 01:25:34;;;;;;;15.88;10.73;;;16.70;90.90;;;;;;4993446;28;20430;-58
2021/09/09 01:28:00;;;;;;;13.70;9.85;;;16.70;91.00;;;;;;5001764;28;20053;-57
2021/09/09 01:30:26;;;;;;;14.00;10.68;;;16.70;91.10;;;;;;5010020;28;20089;-59
2021/09/09 01:32:51;;;;;;;14.57;10.32;;;16.70;90.90;;;;;;5005564;28;20030;-57
2021/09/09 01:35:17;;;;;;;17.98;10.48;;;16.80;90.90;;;;;;5004177;28;20624;-56
2021/09/09 01:37:43;;;;;;;17.52;11.35;;;16.70;91.00;;;;;;4996527;28;20030;-57
2021/09/09 01:40:09;;;;;;;15.98;11.05;;;16.70;91.00;;;;;;5014236;28;20053;-57
2021/09/09 01:42:35;;;;;;;14.82;10.52;;;16.80;90.90;;;;;;4987199;28;20478;-57
2021/09/09 01:45:00;;;;;;;16.45;10.65;;;16.80;91.00;;;;;;4986920;28;20053;-59
2021/09/09 01:47:26;;;;;;;17.02;11.52;;;16.70;90.90;;;;;;4997788;28;20049;-58
2021/09/09 01:49:52;;;;;;;16.65;10.98;;;16.60;90.90;;;;;;5003434;28;20138;-57
2021/09/09 01:52:18;;;;;;;15.82;11.35;;;16.60;91.10;;;;;;4999048;28;20042;-57
2021/09/09 01:54:43;;;;;;;16.90;11.05;;;16.60;91.20;;;;;;5000852;28;20093;-56
2021/09/09 01:57:09;;;;;;;15.35;10.48;;;16.50;91.30;;;;;;4991010;28;20522;-58
2021/09/09 01:59:34;;;;;;;14.95;10.82;;;16.50;91.30;;;;;;4990734;28;20074;-58
2021/09/09 02:02:00;;;;;;;16.13;11.55;;;16.50;91.40;;;;;;5005053;28;20056;-55
2021/09/09 02:04:29;;;;;;;15.00;11.07;;;16.50;91.40;;;;;;4986459;28;20525;-57
2021/09/09 02:06:56;;;;;;;17.58;11.63;;;16.50;91.60;;;;;;4992295;28;21840;-57
2021/09/09 02:09:22;;;;;;;17.23;12.15;;;16.50;91.60;;;;;;4999875;28;20129;-56
2021/09/09 02:11:48;;;;;;;16.58;11.95;;;16.50;91.50;;;;;;4985858;28;20034;-58
2021/09/09 02:14:13;;;;;;;16.20;12.05;;;16.40;91.60;;;;;;5000748;28;20042;-57
2021/09/09 02:16:40;;;;;;;19.00;12.75;;;16.40;91.60;;;;;;5007073;28;20304;-58
2021/09/09 02:19:05;;;;;;;16.88;11.25;;;16.40;91.70;;;;;;4972535;28;20041;-57
2021/09/09 02:21:32;;;;;;;19.85;11.95;;;16.30;91.70;;;;;;5008545;28;20046;-55
2021/09/09 02:23:57;;;;;;;16.00;12.13;;;16.30;91.80;;;;;;4976464;28;20046;-58
2021/09/09 02:26:23;;;;;;;17.75;12.50;;;16.30;91.80;;;;;;4994514;28;20104;-58
2021/09/09 02:28:48;;;;;;;14.93;11.32;;;16.30;91.80;;;;;;4995205;28;20096;-57
2021/09/09 02:31:14;;;;;;;16.77;12.40;;;16.20;91.90;;;;;;5003910;28;20053;-55
2021/09/09 02:33:40;;;;;;;16.70;12.93;;;16.20;92.00;;;;;;5009989;28;20656;-58
2021/09/09 02:36:05;;;;;;;19.38;12.50;;;16.30;91.90;;;;;;4994825;28;20092;-58
2021/09/09 02:38:31;;;;;;;20.17;12.73;;;16.20;92.10;;;;;;5006700;28;20406;-55
2021/09/09 02:40:56;;;;;;;16.33;12.27;;;16.20;91.90;;;;;;5007427;28;20038;-56
2021/09/09 02:43:22;;;;;;;17.02;12.68;;;16.20;91.90;;;;;;5001673;28;20039;-58
2021/09/09 02:45:48;;;;;;;19.33;12.98;;;16.30;91.90;;;;;;5007933;28;20068;-58
2021/09/09 02:48:13;;;;;;;18.52;13.23;;;16.30;91.90;;;;;;4994175;28;20034;-58
2021/09/09 02:50:39;;;;;;;17.98;12.55;;;16.20;91.90;;;;;;4997913;28;20041;-58
2021/09/09 02:53:05;;;;;;;17.30;12.98;;;16.30;91.90;;;;;;4994766;28;20089;-58
2021/09/09 02:55:30;;;;;;;18.35;12.63;;;16.20;92.00;;;;;;4993657;28;20038;-57
2021/09/09 02:57:56;;;;;;;18.92;12.52;;;16.10;92.10;;;;;;4994204;28;20047;-58
2021/09/09 03:00:21;;;;;;;18.02;13.50;;;16.10;92.20;;;;;;4994232;28;20130;-58
2021/09/09 03:02:47;;;;;;;16.23;12.43;;;16.10;92.30;;;;;;4976902;28;20038;-56
2021/09/09 03:05:13;;;;;;;19.17;13.18;;;16.10;92.30;;;;;;4994357;28;20050;-57
2021/09/09 03:07:40;;;;;;;18.13;13.27;;;16.10;92.20;;;;;;4994431;28;20093;-56
2021/09/09 03:10:06;;;;;;;18.63;13.82;;;16.20;92.10;;;;;;4959853;28;20049;-57
2021/09/09 03:12:33;;;;;;;18.48;13.73;;;16.20;92.20;;;;;;4993202;28;20557;-57
2021/09/09 03:14:59;;;;;;;16.88;13.27;;;16.20;92.00;;;;;;4992767;28;20039;-58
2021/09/09 03:17:24;;;;;;;20.33;14.43;;;16.20;92.00;;;;;;4993395;28;20088;-58
2021/09/09 03:19:50;;;;;;;19.33;14.27;;;16.20;92.10;;;;;;4993687;28;20060;-57
2021/09/09 03:22:15;;;;;;;19.58;14.02;;;16.20;92.20;;;;;;5012985;28;20121;-57
2021/09/09 03:24:41;;;;;;;22.90;14.40;;;16.10;92.20;;;;;;5011895;28;20465;-59
2021/09/09 03:27:07;;;;;;;21.52;15.20;;;16.10;92.30;;;;;;4995864;28;20045;-58
2021/09/09 03:29:32;;;;;;;19.58;14.80;;;16.10;92.40;;;;;;5018218;28;20077;-57
2021/09/09 03:31:58;;;;;;;20.27;14.15;;;16.00;92.40;;;;;;5015230;28;20085;-56
2021/09/09 03:34:23;;;;;;;20.60;13.60;;;16.10;92.40;;;;;;5012306;28;20494;-57
2021/09/09 03:36:49;;;;;;;19.90;14.38;;;16.00;92.40;;;;;;5015231;28;20212;-58
2021/09/09 03:39:15;;;;;;;21.10;15.40;;;16.00;92.40;;;;;;4995072;28;20049;-57
2021/09/09 03:41:40;;;;;;;21.15;14.73;;;16.00;92.50;;;;;;5012624;28;20087;-57
2021/09/09 03:44:06;;;;;;;19.02;14.55;;;16.00;92.60;;;;;;5015719;28;20043;-57
2021/09/09 03:46:31;;;;;;;21.40;15.43;;;15.90;92.80;;;;;;5027124;28;20469;-57
2021/09/09 03:48:57;;;;;;;20.77;15.23;;;15.90;92.80;;;;;;5007127;28;20569;-58
2021/09/09 03:51:22;;;;;;;21.15;15.23;;;15.90;92.80;;;;;;4998842;28;20080;-57
2021/09/09 03:53:48;;;;;;;20.90;14.90;;;15.90;92.70;;;;;;5010261;28;20494;-58
2021/09/09 03:56:13;;;;;;;23.60;15.70;;;15.90;92.70;;;;;;5011399;28;20041;-58
2021/09/09 03:58:39;;;;;;;25.30;15.70;;;15.90;92.70;;;;;;4996916;28;20101;-58
2021/09/09 04:01:04;;;;;;;21.23;15.55;;;15.90;92.80;;;;;;5001769;28;20039;-57
2021/09/09 04:03:30;;;;;;;23.27;16.08;;;15.90;92.80;;;;;;5009022;28;20064;-58
2021/09/09 04:05:58;;;;;;;23.42;16.45;;;15.80;92.90;;;;;;5001533;28;20037;-57
2021/09/09 04:08:23;;;;;;;23.67;17.02;;;15.80;93.00;;;;;;5007963;28;20046;-59
2021/09/09 04:10:49;;;;;;;21.88;16.02;;;15.70;93.10;;;;;;5001319;28;20037;-58
2021/09/09 04:13:14;;;;;;;20.85;15.55;;;15.70;93.00;;;;;;4981920;28;20034;-58
2021/09/09 04:15:40;;;;;;;20.67;15.73;;;15.70;93.00;;;;;;5003927;28;20049;-58
2021/09/09 04:18:06;;;;;;;21.45;15.68;;;15.60;93.20;;;;;;5028972;28;20046;-57
2021/09/09 04:20:31;;;;;;;20.90;14.93;;;15.60;93.20;;;;;;5017872;28;20474;-59
2021/09/09 04:22:57;;;;;;;21.77;15.93;;;15.60;93.30;;;;;;5003853;28;20102;-57
2021/09/09 04:25:22;;;;;;;20.38;15.85;;;15.60;93.40;;;;;;5010298;28;20045;-56
2021/09/09 04:27:50;;;;;;;24.00;16.30;;;15.50;93.50;;;;;;5002569;28;20048;-60
2021/09/09 04:30:16;;;;;;;23.00;15.55;;;15.60;93.60;;;;;;4987641;28;20053;-58
2021/09/09 04:32:42;;;;;;;20.10;16.00;;;15.50;93.50;;;;;;5009464;28;20446;-59
2021/09/09 04:35:09;;;;;;;22.98;15.98;;;15.50;93.60;;;;;;5019982;28;20079;-60
2021/09/09 04:37:36;;;;;;;21.08;15.98;;;15.50;93.70;;;;;;4999696;28;20030;-60
2021/09/09 04:40:03;;;;;;;23.98;17.00;;;15.40;93.70;;;;;;5004428;28;20506;-60
2021/09/09 04:42:28;;;;;;;20.65;16.15;;;15.40;93.80;;;;;;4987193;28;20056;-58
2021/09/09 04:44:54;;;;;;;22.52;15.38;;;15.40;93.90;;;;;;5025393;28;20476;-55
2021/09/09 04:47:19;;;;;;;21.60;17.25;;;15.30;94.10;;;;;;4971812;28;20132;-57
2021/09/09 04:49:45;;;;;;;24.33;17.17;;;15.40;94.00;;;;;;5014889;28;20121;-56
2021/09/09 04:52:10;;;;;;;23.40;17.30;;;15.40;93.90;;;;;;4982330;28;20120;-58
2021/09/09 04:54:36;;;;;;;26.17;18.02;;;15.40;94.20;;;;;;5021023;28;20453;-57
2021/09/09 04:57:02;;;;;;;25.40;17.85;;;15.40;94.00;;;;;;5029126;28;20042;-57
2021/09/09 04:59:27;;;;;;;23.63;18.10;;;15.40;94.10;;;;;;5003581;28;20056;-58
2021/09/09 05:01:53;;;;;;;23.80;16.92;;;15.40;94.10;;;;;;5024744;28;20057;-58
2021/09/09 05:04:19;;;;;;;24.00;17.67;;;15.30;94.10;;;;;;5002963;28;20123;-57
2021/09/09 05:06:45;;;;;;;23.48;17.27;;;15.30;94.10;;;;;;5013346;28;20060;-57
2021/09/09 05:09:11;;;;;;;26.17;16.92;;;15.20;94.30;;;;;;5027039;28;20038;-58
2021/09/09 05:11:36;;;;;;;28.35;19.10;;;15.20;94.20;;;;;;5007747;28;20116;-58
2021/09/09 05:14:02;;;;;;;24.95;18.20;;;15.20;94.20;;;;;;4979545;28;20177;-57
2021/09/09 05:16:27;;;;;;;27.67;18.88;;;15.20;94.30;;;;;;4996613;28;20038;-58
2021/09/09 05:18:53;;;;;;;22.40;17.35;;;15.20;94.40;;;;;;4995924;28;20058;-57
2021/09/09 05:21:19;;;;;;;27.85;18.65;;;15.20;94.30;;;;;;5007716;28;20048;-58
2021/09/09 05:23:44;;;;;;;27.67;19.67;;;15.20;94.40;;;;;;5000199;28;20030;-58
2021/09/09 05:26:10;;;;;;;24.52;19.25;;;15.20;94.40;;;;;;4996577;28;20410;-56
2021/09/09 05:28:35;;;;;;;22.42;18.50;;;15.20;94.40;;;;;;5002727;28;20030;-57
2021/09/09 05:31:02;;;;;;;28.17;19.88;;;15.20;94.40;;;;;;4998031;28;20038;-58
2021/09/09 05:33:27;;;;;;;28.40;18.95;;;15.20;94.30;;;;;;4969776;28;20038;-57
2021/09/09 05:35:53;;;;;;;27.98;19.30;;;15.30;94.30;;;;;;4992439;28;20099;-58
2021/09/09 05:38:19;;;;;;;25.52;19.48;;;15.20;94.30;;;;;;5012997;28;20088;-58
2021/09/09 05:40:45;;;;;;;26.65;19.42;;;15.20;94.30;;;;;;4973238;28;20125;-57
2021/09/09 05:43:11;;;;;;;24.08;18.42;;;15.20;94.40;;;;;;4994512;28;20077;-57
2021/09/09 05:45:36;;;;;;;23.88;18.25;;;15.20;94.40;;;;;;5002549;28;20034;-56
2021/09/09 05:48:03;;;;;;;24.70;18.77;;;15.20;94.80;;;;;;4995062;28;20050;-57
2021/09/09 05:50:29;;;;;;;28.05;20.13;;;15.20;94.50;;;;;;4990750;28;20042;-58
2021/09/09 05:52:57;;;;;;;28.95;19.98;;;15.20;94.50;;;;;;4992806;28;20453;-57
2021/09/09 05:55:22;;;;;;;25.98;19.08;;;15.30;94.50;;;;;;4998256;28;20034;-58
2021/09/09 05:57:48;;;;;;;27.85;20.48;;;15.30;94.50;;;;;;5009395;28;20042;-59
2021/09/09 06:00:13;;;;;;;27.33;19.08;;;15.50;94.20;;;;;;5014514;28;20104;-56
2021/09/09 06:02:46;;;;;;;27.83;19.92;;;15.50;94.10;;;;;;4994662;28;20108;-57
2021/09/09 06:05:12;;;;;;;27.60;19.98;;;15.50;94.10;;;;;;4975477;28;20042;-56
2021/09/09 06:07:38;;;;;;;30.15;21.05;;;15.50;94.10;;;;;;5011920;28;20073;-56
2021/09/09 06:10:04;;;;;;;26.60;19.33;;;15.50;94.00;;;;;;5004045;28;20069;-56
2021/09/09 06:12:30;;;;;;;27.92;21.15;;;15.50;94.10;;;;;;5006368;28;20117;-59
2021/09/09 06:14:56;;;;;;;30.42;20.48;;;15.50;94.20;;;;;;4997823;28;20554;-59
2021/09/09 06:17:22;;;;;;;27.83;20.13;;;15.50;94.20;;;;;;5012194;28;20482;-59
2021/09/09 06:19:48;;;;;;;27.85;20.95;;;15.60;94.20;;;;;;5009818;28;20029;-57
2021/09/09 06:22:14;;;;;;;28.40;21.10;;;15.60;94.30;;;;;;5012099;28;20034;-57
2021/09/09 06:24:39;;;;;;;28.15;20.65;;;15.60;94.20;;;;;;5006907;28;20038;-59
2021/09/09 06:27:05;;;;;;;29.63;21.23;;;15.60;94.30;;;;;;5004804;28;20129;-58
2021/09/09 06:29:30;;;;;;;28.40;20.52;;;15.70;94.30;;;;;;5012575;28;20053;-59
2021/09/09 06:31:57;;;;;;;31.50;21.92;;;15.70;94.30;;;;;;5001977;28;20038;-57
2021/09/09 06:34:23;;;;;;;27.38;19.85;;;15.70;94.40;;;;;;4971421;28;20622;-59
2021/09/09 06:36:49;;;;;;;27.38;21.45;;;15.80;94.40;;;;;;5009845;28;20050;-58
2021/09/09 06:39:15;;;;;;;32.03;21.08;;;15.90;94.30;;;;;;4986476;28;20074;-59
2021/09/09 06:41:45;;;;;;;30.70;20.58;;;15.90;94.20;;;;;;5011681;28;20576;-57
2021/09/09 06:44:14;;;;;;;26.67;20.45;;;15.90;94.20;;;;;;5011198;28;20542;-57
2021/09/09 06:46:40;;;;;;;28.48;20.27;;;16.00;94.10;;;;;;4987504;28;20120;-58
2021/09/09 06:49:07;;;;;;;26.63;19.90;;;16.10;94.10;;;;;;5010785;28;20110;-58
2021/09/09 06:51:33;;;;;;;29.88;21.45;;;16.20;94.00;;;;;;4988603;28;20445;-59
2021/09/09 06:53:58;;;;;;;27.92;21.10;;;16.20;93.90;;;;;;5004921;28;20042;-58
2021/09/09 06:56:25;;;;;;;29.85;20.58;;;16.20;93.90;;;;;;4997169;28;20409;-58
2021/09/09 06:58:51;;;;;;;28.83;20.75;;;16.20;93.90;;;;;;4996201;28;20731;-59
2021/09/09 07:01:17;;;;;;;27.65;20.92;;;16.30;94.00;;;;;;4976005;28;20042;-55
2021/09/09 07:03:42;;;;;;;27.08;20.17;;;16.30;94.10;;;;;;5011037;28;20036;-55
2021/09/09 07:06:09;;;;;;;26.17;20.88;;;16.40;93.90;;;;;;5011007;28;20054;-56
2021/09/09 07:08:34;;;;;;;26.98;19.80;;;16.40;93.70;;;;;;4977041;28;20036;-56
2021/09/09 07:11:00;;;;;;;32.80;21.13;;;16.50;93.80;;;;;;4997039;28;20117;-58
2021/09/09 07:13:28;;;;;;;28.05;21.92;;;16.50;93.90;;;;;;4995086;28;20050;-58
2021/09/09 07:15:56;;;;;;;30.33;21.55;;;16.60;93.70;;;;;;5009429;28;20120;-58
2021/09/09 07:18:21;;;;;;;30.13;21.80;;;16.70;93.70;;;;;;4987517;28;20124;-55
2021/09/09 07:20:47;;;;;;;26.88;21.73;;;16.80;93.70;;;;;;5006804;28;20117;-55
2021/09/09 07:23:12;;;;;;;26.98;22.10;;;16.80;93.70;;;;;;5017721;28;20498;-58
2021/09/09 07:25:38;;;;;;;29.65;20.98;;;16.90;93.80;;;;;;5002922;28;20057;-56
2021/09/09 07:28:04;;;;;;;29.50;21.80;;;17.00;93.60;;;;;;5001045;28;20044;-57
2021/09/09 07:30:30;;;;;;;27.08;20.80;;;17.10;93.70;;;;;;4987125;28;20038;-57
2021/09/09 07:32:55;;;;;;;26.85;20.70;;;17.20;93.70;;;;;;5000737;28;20034;-58
2021/09/09 07:35:21;;;;;;;25.38;20.13;;;17.30;93.50;;;;;;5002888;28;20056;-57
2021/09/09 07:37:46;;;;;;;27.60;20.85;;;17.50;93.20;;;;;;5006215;28;20092;-58
2021/09/09 07:40:12;;;;;;;26.90;20.33;;;17.60;92.90;;;;;;4994868;28;20463;-57
2021/09/09 07:42:38;;;;;;;29.30;21.35;;;17.70;92.80;;;;;;4995956;28;20054;-58
2021/09/09 07:45:05;;;;;;;26.92;20.85;;;17.80;92.80;;;;;;5007602;28;20520;-58
2021/09/09 07:47:31;;;;;;;27.05;20.08;;;18.00;92.70;;;;;;4964816;28;20062;-58
2021/09/09 07:49:56;;;;;;;25.10;19.83;;;18.10;92.50;;;;;;4997990;28;20034;-57
2021/09/09 07:52:22;;;;;;;28.95;20.48;;;18.20;92.40;;;;;;4998578;28;20577;-58
2021/09/09 07:54:48;;;;;;;27.15;20.10;;;18.40;92.30;;;;;;5002215;28;20418;-58
2021/09/09 07:57:14;;;;;;;27.15;19.52;;;18.50;92.20;;;;;;4999036;28;20045;-57
2021/09/09 07:59:39;;;;;;;31.25;19.38;;;18.60;92.10;;;;;;5002455;28;20046;-58
2021/09/09 08:02:05;;;;;;;27.70;19.80;;;18.80;91.90;;;;;;5007473;28;20039;-56
2021/09/09 08:04:30;;;;;;;26.95;19.55;;;18.90;91.70;;;;;;5007911;28;20537;-58
2021/09/09 08:06:56;;;;;;;24.35;18.98;;;19.00;91.70;;;;;;4985763;28;20391;-57
2021/09/09 08:09:21;;;;;;;26.65;19.15;;;19.20;91.60;;;;;;5008237;28;20042;-57
2021/09/09 08:11:47;;;;;;;23.45;18.65;;;19.30;91.00;;;;;;5008850;28;20493;-57
2021/09/09 08:14:13;;;;;;;23.30;18.30;;;19.40;90.70;;;;;;4982913;28;20046;-58
2021/09/09 08:16:38;;;;;;;25.08;18.73;;;19.50;90.20;;;;;;5005791;28;20506;-58
2021/09/09 08:19:05;;;;;;;22.80;18.38;;;19.60;90.00;;;;;;5010854;28;20036;-58
2021/09/09 08:21:31;;;;;;;27.65;19.42;;;19.70;90.10;;;;;;5005106;28;20500;-58
2021/09/09 08:23:56;;;;;;;24.67;18.65;;;19.80;90.00;;;;;;5010612;28;20038;-57
2021/09/09 08:26:22;;;;;;;27.13;19.08;;;19.90;90.10;;;;;;5007320;28;20084;-58
2021/09/09 08:28:48;;;;;;;30.60;18.33;;;20.00;89.50;;;;;;4984964;28;20061;-58
2021/09/09 08:31:15;;;;;;;27.08;18.05;;;20.10;88.60;;;;;;5002951;28;20065;-58
2021/09/09 08:33:42;;;;;;;25.55;18.23;;;20.20;87.60;;;;;;4967130;28;20107;-58
2021/09/09 08:36:09;;;;;;;25.17;18.13;;;20.30;87.10;;;;;;4983241;28;20538;-58
2021/09/09 08:38:35;;;;;;;33.55;19.83;;;20.40;87.50;;;;;;5000249;28;20041;-58
2021/09/09 08:41:04;;;;;;;27.73;19.00;;;20.60;87.60;;;;;;4995913;28;20038;-57
2021/09/09 08:43:30;;;;;;;24.50;19.27;;;20.70;87.70;;;;;;4999119;28;20125;-58
2021/09/09 08:45:59;;;;;;;22.15;17.10;;;20.80;86.50;;;;;;5001395;28;20501;-58
2021/09/09 08:48:27;;;;;;;22.38;18.02;;;21.00;85.80;;;;;;5005162;28;20030;-58
2021/09/09 08:50:53;;;;;;;25.85;17.08;;;21.10;85.50;;;;;;5006077;28;20050;-55
2021/09/09 08:53:19;;;;;;;23.25;16.92;;;21.20;85.80;;;;;;5010071;28;20048;-57
2021/09/09 08:55:45;;;;;;;23.77;16.48;;;21.30;86.00;;;;;;5000304;28;20030;-57
2021/09/09 08:58:11;;;;;;;22.75;17.98;;;21.50;85.10;;;;;;4995370;28;20049;-57
2021/09/09 09:00:37;;;;;;;20.65;17.40;;;21.60;84.50;;;;;;4987876;28;20038;-58
2021/09/09 09:03:03;;;;;;;23.40;16.92;;;21.70;83.10;;;;;;4977612;28;20064;-58
2021/09/09 09:05:37;;;;;;;21.13;16.67;;;21.80;80.90;;;;;;4999856;28;20057;-58
2021/09/09 09:08:04;;;;;;;19.50;15.82;;;21.80;80.90;;;;;;4991908;28;20095;-58
2021/09/09 09:10:31;;;;;;;22.92;16.40;;;21.90;81.20;;;;;;5003232;28;20133;-58
2021/09/09 09:12:57;;;;;;;21.63;15.45;;;21.90;79.50;;;;;;5004480;28;20036;-57
2021/09/09 09:15:26;;;;;;;21.10;15.30;;;22.00;80.10;;;;;;4985014;28;20042;-57
2021/09/09 09:18:04;;;;;;;26.42;17.10;;;22.20;80.50;;;;;;5002112;28;20030;-58
2021/09/09 09:20:49;;;;;;;23.70;17.10;;;22.30;81.00;;;;;;5012283;28;20034;-57
2021/09/09 09:23:25;;;;;;;20.40;15.90;;;22.30;79.60;;;;;;5002339;28;20042;-58
2021/09/09 09:25:55;;;;;;;30.70;16.27;;;22.40;79.90;;;;;;4999743;28;20081;-58
2021/09/09 09:28:50;;;;;;;20.85;15.40;;;22.50;80.30;;;;;;5008591;28;20034;-54
2021/09/09 09:31:20;;;;;;;19.92;16.73;;;22.60;78.60;;;;;;4998608;28;20465;-54
2021/09/09 09:33:54;;;;;;;21.65;16.58;;;22.70;78.30;;;;;;5008210;28;20048;-55
2021/09/09 09:36:29;;;;;;;19.25;15.73;;;22.70;76.80;;;;;;4986987;28;20054;-55
2021/09/09 09:39:18;;;;;;;22.23;15.77;;;22.80;77.60;;;;;;4989440;28;20105;-55
2021/09/09 09:41:59;;;;;;;24.13;16.50;;;22.80;78.70;;;;;;5001592;28;20503;-56
2021/09/09 09:44:47;;;;;;;21.98;15.68;;;22.90;78.50;;;;;;5010475;28;20033;-56
2021/09/09 09:47:19;;;;;;;21.27;16.45;;;23.00;78.90;;;;;;5002807;28;20043;-55
2021/09/09 09:49:49;;;;;;;28.10;17.95;;;23.20;78.50;;;;;;5012922;28;20045;-55
2021/09/09 09:52:26;;;;;;;19.65;16.00;;;23.30;78.30;;;;;;5010152;28;20087;-56
2021/09/09 09:54:53;;;;;;;23.92;17.33;;;23.30;77.60;;;;;;5012553;28;20054;-56
2021/09/09 09:57:20;;;;;;;19.73;16.33;;;23.40;76.30;;;;;;5011988;28;20069;-55
2021/09/09 09:59:46;;;;;;;22.20;16.65;;;23.40;77.00;;;;;;5014845;28;20073;-55
2021/09/09 10:02:12;;;;;;;20.05;15.60;;;23.50;76.80;;;;;;5007147;28;20085;-53
2021/09/09 10:04:46;;;;;;;22.70;16.70;;;23.60;77.20;;;;;;5013682;28;20061;-56
2021/09/09 10:07:13;;;;;;;22.48;17.33;;;23.70;75.80;;;;;;5011587;28;20111;-55
2021/09/09 10:09:39;;;;;;;20.92;16.95;;;23.70;76.20;;;;;;5013805;28;20122;-55
2021/09/09 10:12:12;;;;;;;22.83;15.82;;;23.70;76.30;;;;;;5010873;28;20042;-55
2021/09/09 10:14:49;;;;;;;21.65;16.98;;;23.80;75.70;;;;;;5000274;28;20034;-56
2021/09/09 10:17:21;;;;;;;21.10;17.17;;;23.90;75.00;;;;;;5006974;28;20038;-56
2021/09/09 10:19:48;;;;;;;20.80;16.50;;;24.00;75.60;;;;;;5013814;28;20042;-56
2021/09/09 10:22:19;;;;;;;21.13;15.93;;;24.10;75.70;;;;;;5001436;28;20435;-56
2021/09/09 10:25:06;;;;;;;23.90;16.58;;;24.20;75.70;;;;;;5007672;28;20034;-56
2021/09/09 10:27:40;;;;;;;23.02;16.85;;;24.30;76.10;;;;;;4998538;28;20557;-56
2021/09/09 10:30:15;;;;;;;19.90;15.95;;;24.30;74.40;;;;;;4995534;28;20085;-56
2021/09/09 10:32:46;;;;;;;18.92;15.20;;;24.40;72.20;;;;;;5001598;28;20120;-56
2021/09/09 10:35:17;;;;;;;22.85;14.73;;;24.50;72.90;;;;;;4996715;28;20046;-56
2021/09/09 10:37:48;;;;;;;22.48;15.65;;;24.60;73.40;;;;;;5002899;28;20049;-56
2021/09/09 10:40:31;;;;;;;20.80;15.45;;;24.80;71.30;;;;;;4998935;28;20374;-56
2021/09/09 10:43:03;;;;;;;19.25;16.52;;;24.80;72.10;;;;;;4999256;28;20078;-56
2021/09/09 10:45:37;;;;;;;20.55;14.40;;;24.80;70.40;;;;;;5006711;28;20080;-56
2021/09/09 10:48:08;;;;;;;19.15;13.32;;;24.80;71.30;;;;;;5005659;28;20050;-56
2021/09/09 10:50:34;;;;;;;19.48;13.52;;;25.00;71.30;;;;;;5007843;28;20394;-56
2021/09/09 10:53:05;;;;;;;19.05;13.52;;;25.10;70.00;;;;;;5012682;28;20049;-58
2021/09/09 10:55:33;;;;;;;14.52;11.00;;;25.20;69.40;;;;;;4958987;28;20089;-54
2021/09/09 10:58:20;;;;;;;13.40;9.82;;;25.30;63.70;;;;;;5006657;28;20034;-56
2021/09/09 11:00:57;;;;;;;17.63;10.20;;;25.30;64.40;;;;;;4998658;28;20046;-56
2021/09/09 11:03:47;;;;;;;17.08;10.80;;;25.40;63.00;;;;;;5014182;28;20046;-56
2021/09/09 11:06:18;;;;;;;12.82;10.23;;;25.50;62.10;;;;;;5007267;28;20099;-55
2021/09/09 11:08:47;;;;;;;14.98;10.52;;;25.60;60.60;;;;;;5011761;28;20034;-54
2021/09/09 11:11:21;;;;;;;19.05;10.05;;;25.60;60.40;;;;;;5006492;28;20109;-54
2021/09/09 11:13:55;;;;;;;15.55;9.80;;;25.60;61.10;;;;;;4994768;28;20453;-56
2021/09/09 11:16:24;;;;;;;15.07;10.30;;;25.60;61.20;;;;;;4992336;28;20042;-53
2021/09/09 11:18:50;;;;;;;16.33;9.75;;;25.70;61.60;;;;;;5007089;28;20050;-53
2021/09/09 11:21:31;;;;;;;15.75;9.68;;;25.70;61.00;;;;;;5009877;28;20038;-56
2021/09/09 11:24:09;;;;;;;13.80;9.90;;;25.90;58.20;;;;;;4984486;28;20038;-52
2021/09/09 11:26:36;;;;;;;14.82;10.00;;;25.80;57.90;;;;;;4992469;28;20042;-54
2021/09/09 11:29:04;;;;;;;11.93;9.77;;;25.70;58.50;;;;;;5008004;28;20522;-56
2021/09/09 11:31:31;;;;;;;15.88;9.18;;;25.60;58.10;;;;;;5027191;28;20053;-50
2021/09/09 11:34:05;;;;;;;13.55;9.07;;;25.60;60.00;;;;;;5004041;28;20046;-55
2021/09/09 11:36:38;;;;;;;13.13;8.88;;;25.60;60.40;;;;;;4977456;28;20050;-52
2021/09/09 11:39:18;;;;;;;13.00;9.57;;;25.70;61.10;;;;;;4984674;28;20129;-56
2021/09/09 11:41:44;;;;;;;12.57;9.45;;;25.80;60.00;;;;;;5014805;28;20455;-51
2021/09/09 11:44:21;;;;;;;12.60;9.23;;;25.90;60.00;;;;;;4989549;28;20038;-56
2021/09/09 11:46:50;;;;;;;18.70;10.05;;;25.90;61.00;;;;;;5025559;28;20034;-56
2021/09/09 11:49:18;;;;;;;12.90;10.32;;;25.90;60.90;;;;;;5012126;28;20046;-53
2021/09/09 11:51:48;;;;;;;16.67;10.20;;;25.90;61.00;;;;;;5002872;28;20034;-55
2021/09/09 11:54:34;;;;;;;18.27;10.60;;;26.00;61.70;;;;;;5013573;28;20091;-53
2021/09/09 11:57:11;;;;;;;14.73;9.88;;;26.00;61.50;;;;;;4993393;28;20045;-55
2021/09/09 11:59:58;;;;;;;14.30;10.63;;;26.10;61.50;;;;;;4968864;28;20034;-56
2021/09/09 12:02:24;;;;;;;13.20;10.90;;;26.30;61.00;;;;;;5014159;28;20092;-58
2021/09/09 12:04:50;;;;;;;15.60;10.88;;;26.30;59.40;;;;;;4996131;28;20433;-58
2021/09/09 12:07:21;;;;;;;14.40;10.60;;;26.40;59.70;;;;;;5013659;28;20037;-58
2021/09/09 12:09:57;;;;;;;19.98;11.80;;;26.40;58.90;;;;;;5021854;28;20042;-58
2021/09/09 12:12:23;;;;;;;15.77;10.73;;;26.40;59.50;;;;;;5010907;28;20053;-58
2021/09/09 12:15:10;;;;;;;15.80;11.65;;;26.40;60.00;;;;;;4999430;28;20038;-56
2021/09/09 12:17:38;;;;;;;13.23;10.80;;;26.50;60.40;;;;;;4988515;28;20053;-58
2021/09/09 12:20:10;;;;;;;17.00;11.15;;;26.50;59.00;;;;;;5008094;28;20045;-58
2021/09/09 12:22:45;;;;;;;15.55;10.00;;;26.70;59.20;;;;;;4988862;28;20057;-58
2021/09/09 12:25:36;;;;;;;14.25;9.48;;;26.70;59.70;;;;;;4996129;28;20117;-58
2021/09/09 12:28:07;;;;;;;20.43;10.70;;;26.70;57.60;;;;;;4999104;28;20038;-57
2021/09/09 12:30:35;;;;;;;13.02;9.73;;;26.70;55.60;;;;;;4989504;28;20350;-56